Time;durP1;ratioP1;P1;durP2;ratioP2;P2;SDS_P1;SDS_P2;PMS_P1;PMS_P2;Temp;Humidity;BMP_temperature;BMP_pressure;BME280_temperature;BME280_humidity;BME280_pressure;Samples;Min_cycle;Max_cycle;Signal;HPM_P1;HPM_P2
2023/11/26 00:00:48;;;;;;;1.00;0.63;;;12.20;98.20;;;;;;5033968;28;20112;-47
2023/11/26 00:03:15;;;;;;;0.85;0.50;;;12.20;98.20;;;;;;5032962;28;20125;-46
2023/11/26 00:05:40;;;;;;;1.20;0.60;;;12.20;98.50;;;;;;5033369;28;20021;-46
2023/11/26 00:08:06;;;;;;;1.20;0.70;;;12.20;98.20;;;;;;5033579;28;20140;-47
2023/11/26 00:10:31;;;;;;;1.20;0.80;;;12.20;98.20;;;;;;5033854;28;20021;-46
2023/11/26 00:12:57;;;;;;;2.97;0.90;;;12.20;98.20;;;;;;5033555;28;20379;-46
2023/11/26 00:15:23;;;;;;;1.65;0.80;;;12.20;98.20;;;;;;5033518;28;20026;-45
2023/11/26 00:17:49;;;;;;;1.95;0.80;;;12.20;98.20;;;;;;5033092;28;20025;-47
2023/11/26 00:20:15;;;;;;;1.13;0.40;;;12.20;98.30;;;;;;5033822;28;20438;-47
2023/11/26 00:22:41;;;;;;;1.13;0.82;;;12.20;98.30;;;;;;5033509;28;20091;-47
2023/11/26 00:25:07;;;;;;;0.90;0.52;;;12.20;98.30;;;;;;5033832;28;20521;-46
2023/11/26 00:27:33;;;;;;;1.45;0.70;;;12.20;98.30;;;;;;5033967;28;20356;-46
2023/11/26 00:30:01;;;;;;;1.42;0.70;;;12.10;98.30;;;;;;5032783;28;20105;-47
2023/11/26 00:32:26;;;;;;;0.98;0.50;;;12.20;98.30;;;;;;5032420;28;20021;-47
2023/11/26 00:34:53;;;;;;;1.65;0.77;;;12.20;98.30;;;;;;5033047;28;20052;-46
2023/11/26 00:37:18;;;;;;;1.00;0.52;;;12.10;98.30;;;;;;5032995;28;20033;-46
2023/11/26 00:39:44;;;;;;;1.70;0.80;;;12.10;98.30;;;;;;5033049;28;20029;-47
2023/11/26 00:42:09;;;;;;;1.27;0.60;;;12.10;98.30;;;;;;5034242;28;20423;-45
2023/11/26 00:44:35;;;;;;;1.88;0.80;;;12.10;98.30;;;;;;5034090;28;20029;-46
2023/11/26 00:47:01;;;;;;;1.35;0.77;;;12.10;98.30;;;;;;5032708;28;20056;-47
2023/11/26 00:49:26;;;;;;;1.38;0.68;;;12.10;98.30;;;;;;5031841;28;20033;-47
2023/11/26 00:51:52;;;;;;;1.38;0.63;;;12.10;98.30;;;;;;5031986;28;20072;-47
2023/11/26 00:54:18;;;;;;;1.73;0.75;;;12.10;98.30;;;;;;5032014;28;20060;-45
2023/11/26 00:56:44;;;;;;;1.60;0.80;;;12.10;98.30;;;;;;5032794;28;20036;-46
2023/11/26 00:59:10;;;;;;;2.22;0.70;;;12.10;98.30;;;;;;5032689;28;20026;-47
2023/11/26 01:01:36;;;;;;;1.77;0.75;;;12.10;98.30;;;;;;5032488;28;20036;-46
2023/11/26 01:04:01;;;;;;;1.95;0.80;;;12.10;98.30;;;;;;5032826;28;20044;-47
2023/11/26 01:06:27;;;;;;;2.50;0.85;;;12.10;98.40;;;;;;5032958;28;20514;-47
2023/11/26 01:08:53;;;;;;;2.42;0.93;;;12.10;98.40;;;;;;5031453;28;20017;-47
2023/11/26 01:11:18;;;;;;;3.47;1.27;;;12.10;98.40;;;;;;5032619;28;20097;-46
2023/11/26 01:13:44;;;;;;;1.75;0.93;;;12.10;98.40;;;;;;5032434;28;20640;-47
2023/11/26 01:16:10;;;;;;;3.20;1.20;;;12.10;98.30;;;;;;5031505;28;20390;-46
2023/11/26 01:18:38;;;;;;;2.60;1.45;;;12.10;98.40;;;;;;5032160;28;20482;-46
2023/11/26 01:21:04;;;;;;;3.92;1.35;;;12.10;98.40;;;;;;5032584;28;20025;-46
2023/11/26 01:23:29;;;;;;;4.00;1.67;;;12.10;98.40;;;;;;5031563;28;20025;-45
2023/11/26 01:25:55;;;;;;;4.82;1.55;;;12.00;98.30;;;;;;5031350;28;20036;-48
2023/11/26 01:28:20;;;;;;;3.72;1.38;;;12.00;98.30;;;;;;5031199;28;20017;-46
2023/11/26 01:30:46;;;;;;;4.40;1.20;;;12.10;98.40;;;;;;5031215;28;20022;-46
2023/11/26 01:33:12;;;;;;;2.88;1.27;;;12.10;98.40;;;;;;5031228;28;20021;-47
2023/11/26 01:35:37;;;;;;;3.05;1.33;;;12.00;98.40;;;;;;5031233;28;20073;-47
2023/11/26 01:38:03;;;;;;;3.63;1.33;;;12.10;98.40;;;;;;5031218;28;20041;-47
2023/11/26 01:40:35;;;;;;;3.22;1.63;;;12.00;98.40;;;;;;5031249;28;20044;-47
2023/11/26 01:43:02;;;;;;;2.95;1.35;;;12.00;98.40;;;;;;5032083;28;20053;-47
2023/11/26 01:45:29;;;;;;;3.47;1.60;;;12.00;98.40;;;;;;5031956;28;20036;-47
2023/11/26 01:47:56;;;;;;;2.67;1.23;;;12.00;98.40;;;;;;5032251;28;20026;-47
2023/11/26 01:50:24;;;;;;;2.97;1.38;;;12.00;98.40;;;;;;5032066;28;20021;-46
2023/11/26 01:52:50;;;;;;;3.45;1.50;;;12.00;98.40;;;;;;5047401;28;20056;-47
2023/11/26 01:55:18;;;;;;;3.58;1.58;;;12.00;98.40;;;;;;5032761;28;20080;-45
2023/11/26 01:57:45;;;;;;;3.30;1.58;;;12.00;98.30;;;;;;5032377;28;20029;-46
2023/11/26 02:00:13;;;;;;;3.28;1.67;;;12.00;98.40;;;;;;5032320;28;20116;-47
2023/11/26 02:02:40;;;;;;;2.95;1.33;;;12.00;98.40;;;;;;5031419;28;20471;-46
2023/11/26 02:05:10;;;;;;;3.28;1.70;;;12.00;98.40;;;;;;5031055;28;20114;-47
2023/11/26 02:07:36;;;;;;;4.28;1.52;;;12.00;98.40;;;;;;5030956;28;20025;-46
2023/11/26 02:10:02;;;;;;;3.78;1.88;;;12.00;98.40;;;;;;5030868;28;20022;-47
2023/11/26 02:12:27;;;;;;;4.35;1.63;;;12.00;98.40;;;;;;5031439;28;20029;-46
2023/11/26 02:14:53;;;;;;;2.75;1.45;;;12.00;98.30;;;;;;5032185;28;20035;-47
2023/11/26 02:17:20;;;;;;;3.85;1.75;;;12.00;98.40;;;;;;5031162;28;20025;-46
2023/11/26 02:19:46;;;;;;;5.53;2.42;;;11.90;98.30;;;;;;5030852;28;20459;-46
2023/11/26 02:22:12;;;;;;;2.50;1.20;;;12.00;98.30;;;;;;5031201;28;20430;-46
2023/11/26 02:24:44;;;;;;;2.78;1.45;;;12.00;98.30;;;;;;5030833;28;20025;-47
2023/11/26 02:27:10;;;;;;;3.17;1.30;;;11.90;98.30;;;;;;5031532;28;20022;-46
2023/11/26 02:29:35;;;;;;;3.15;1.38;;;11.90;98.30;;;;;;5031327;28;20022;-46
2023/11/26 02:32:01;;;;;;;4.28;1.45;;;12.00;98.30;;;;;;5032071;28;20104;-46
2023/11/26 02:34:27;;;;;;;4.15;1.50;;;11.90;98.30;;;;;;5030851;28;20036;-47
2023/11/26 02:36:52;;;;;;;3.28;1.60;;;11.90;98.30;;;;;;5030628;28;20021;-46
2023/11/26 02:39:18;;;;;;;2.25;1.23;;;11.90;98.30;;;;;;5030621;28;20033;-46
2023/11/26 02:41:44;;;;;;;2.92;1.25;;;11.90;98.30;;;;;;5031397;28;20056;-47
2023/11/26 02:44:10;;;;;;;2.90;1.27;;;11.90;98.30;;;;;;5034433;28;20065;-46
2023/11/26 02:46:36;;;;;;;2.20;1.00;;;11.90;98.30;;;;;;5034242;28;20026;-47
2023/11/26 02:49:03;;;;;;;2.53;1.38;;;11.90;98.30;;;;;;5034187;28;20021;-47
2023/11/26 02:51:29;;;;;;;2.97;1.15;;;11.90;98.30;;;;;;5034480;28;20014;-48
2023/11/26 02:53:54;;;;;;;1.73;0.77;;;11.90;98.40;;;;;;5034235;28;20494;-47
2023/11/26 02:56:21;;;;;;;3.78;1.15;;;12.00;98.50;;;;;;5035107;28;20025;-47
2023/11/26 02:58:46;;;;;;;2.65;1.25;;;12.00;98.50;;;;;;5034905;28;20037;-47
2023/11/26 03:01:19;;;;;;;2.03;0.98;;;12.00;98.40;;;;;;5034305;28;20079;-46
2023/11/26 03:03:47;;;;;;;2.45;1.08;;;12.10;98.40;;;;;;5034035;28;20479;-45
2023/11/26 03:06:15;;;;;;;2.50;1.20;;;12.10;98.40;;;;;;5035176;28;20029;-46
2023/11/26 03:08:43;;;;;;;1.85;0.90;;;12.20;98.30;;;;;;5034626;28;20025;-46
2023/11/26 03:13:56;;;;;;;1.60;0.90;;;12.30;98.10;;;;;;5034835;28;20029;-46
2023/11/26 03:16:26;;;;;;;2.03;0.90;;;12.30;98.00;;;;;;5034832;28;20029;-46
2023/11/26 03:18:52;;;;;;;2.00;1.10;;;12.40;97.90;;;;;;5034823;28;20480;-47
2023/11/26 03:21:26;;;;;;;2.83;0.75;;;12.40;97.90;;;;;;5035551;28;20033;-47
2023/11/26 03:23:52;;;;;;;2.65;0.95;;;12.40;97.80;;;;;;5034784;28;20068;-47
2023/11/26 03:26:21;;;;;;;2.72;1.17;;;12.40;97.70;;;;;;5034190;28;20021;-46
2023/11/26 03:28:47;;;;;;;2.20;1.00;;;12.50;97.70;;;;;;5033856;28;20048;-46
2023/11/26 03:31:13;;;;;;;2.33;1.00;;;12.50;97.60;;;;;;5033700;28;20426;-45
2023/11/26 03:33:38;;;;;;;2.17;0.90;;;12.50;97.60;;;;;;5033552;28;20072;-46
2023/11/26 03:36:05;;;;;;;2.17;0.90;;;12.50;97.50;;;;;;5033456;28;20029;-47
2023/11/26 03:38:32;;;;;;;1.67;0.70;;;12.50;97.50;;;;;;5033285;28;20035;-46
2023/11/26 03:40:58;;;;;;;2.35;1.00;;;12.50;97.50;;;;;;5033313;28;20025;-47
2023/11/26 03:43:24;;;;;;;1.55;0.77;;;12.50;97.50;;;;;;5033763;28;20490;-47
2023/11/26 03:45:50;;;;;;;1.17;0.73;;;12.50;97.50;;;;;;5033146;28;20079;-47
2023/11/26 03:48:16;;;;;;;1.50;0.70;;;12.50;97.50;;;;;;5033241;28;20029;-46
2023/11/26 03:50:42;;;;;;;1.70;0.90;;;12.50;97.50;;;;;;5034389;28;20037;-46
2023/11/26 03:53:08;;;;;;;1.60;0.90;;;12.40;97.40;;;;;;5034873;28;20518;-46
2023/11/26 03:55:34;;;;;;;1.55;0.60;;;12.40;97.40;;;;;;5032783;28;20112;-47
2023/11/26 03:58:01;;;;;;;1.50;0.75;;;12.40;97.40;;;;;;5033217;28;20104;-46
2023/11/26 04:00:26;;;;;;;2.30;0.85;;;12.40;97.40;;;;;;5034253;28;20121;-46
2023/11/26 04:02:52;;;;;;;1.30;0.77;;;12.40;97.40;;;;;;5033193;28;20033;-47
2023/11/26 04:05:18;;;;;;;2.20;0.93;;;12.40;97.40;;;;;;5032998;28;20462;-47
2023/11/26 04:07:44;;;;;;;1.27;0.50;;;12.40;97.40;;;;;;5034092;28;20117;-47
2023/11/26 04:10:10;;;;;;;1.40;0.60;;;12.30;97.40;;;;;;5033757;28;20014;-46
2023/11/26 04:12:37;;;;;;;0.98;0.55;;;12.40;97.40;;;;;;5033902;28;20033;-47
2023/11/26 04:15:03;;;;;;;1.63;0.70;;;12.40;97.40;;;;;;5033891;28;20025;-47
2023/11/26 04:17:29;;;;;;;1.83;0.68;;;12.30;97.40;;;;;;5033781;28;20061;-47
2023/11/26 04:19:55;;;;;;;1.42;0.70;;;12.30;97.40;;;;;;5032580;28;20128;-45
2023/11/26 04:22:25;;;;;;;1.52;0.65;;;12.30;97.40;;;;;;5033398;28;20672;-47
2023/11/26 04:24:51;;;;;;;2.08;0.73;;;12.30;97.40;;;;;;5034291;28;20034;-45
2023/11/26 04:27:18;;;;;;;1.58;0.63;;;12.30;97.40;;;;;;5032445;28;20101;-47
2023/11/26 04:29:44;;;;;;;2.38;0.82;;;12.30;97.40;;;;;;5033177;28;20075;-47
2023/11/26 04:32:10;;;;;;;1.33;0.55;;;12.30;97.50;;;;;;5033730;28;20028;-46
2023/11/26 04:34:36;;;;;;;2.50;0.88;;;12.30;97.50;;;;;;5033280;28;20387;-47
2023/11/26 04:37:05;;;;;;;1.77;0.77;;;12.30;97.50;;;;;;5033338;28;20017;-45
2023/11/26 04:39:31;;;;;;;1.38;0.75;;;12.30;97.50;;;;;;5032177;28;20064;-48
2023/11/26 04:41:56;;;;;;;2.63;0.80;;;12.30;97.50;;;;;;5032254;28;20467;-45
2023/11/26 04:44:22;;;;;;;2.10;0.77;;;12.20;97.50;;;;;;5032329;28;20029;-47
2023/11/26 04:46:49;;;;;;;1.33;0.60;;;12.20;97.50;;;;;;5032081;28;20022;-47
2023/11/26 04:49:15;;;;;;;1.67;0.60;;;12.20;97.50;;;;;;5032611;28;20030;-47
2023/11/26 04:51:41;;;;;;;1.60;0.80;;;12.20;97.50;;;;;;5032829;28;20017;-46
2023/11/26 04:54:11;;;;;;;1.50;0.60;;;12.20;97.50;;;;;;5033419;28;20386;-46
2023/11/26 04:56:40;;;;;;;2.08;0.50;;;12.20;97.50;;;;;;5032156;28;20025;-46
2023/11/26 04:59:06;;;;;;;1.25;0.70;;;12.20;97.60;;;;;;5031888;28;20104;-47
2023/11/26 05:01:35;;;;;;;1.90;0.60;;;12.10;97.60;;;;;;5031983;28;20021;-46
2023/11/26 05:04:03;;;;;;;1.05;0.50;;;12.10;97.60;;;;;;5031920;28;20502;-48
2023/11/26 05:06:28;;;;;;;1.33;0.68;;;12.10;97.60;;;;;;5030703;28;20026;-47
2023/11/26 05:08:54;;;;;;;2.47;0.80;;;12.10;97.60;;;;;;5032116;28;20048;-48
2023/11/26 05:11:20;;;;;;;1.73;0.57;;;12.10;97.60;;;;;;5032723;28;20029;-47
2023/11/26 05:13:48;;;;;;;1.42;0.77;;;12.10;97.60;;;;;;5031808;28;20388;-47
2023/11/26 05:16:14;;;;;;;1.10;0.65;;;12.10;97.70;;;;;;5031682;28;20079;-46
2023/11/26 05:18:40;;;;;;;1.17;0.60;;;12.10;97.70;;;;;;5032791;28;20477;-47
2023/11/26 05:21:06;;;;;;;1.38;0.70;;;12.10;97.70;;;;;;5031750;28;20032;-47
2023/11/26 05:23:33;;;;;;;1.85;0.80;;;12.10;97.70;;;;;;5032062;28;20101;-47
2023/11/26 05:26:02;;;;;;;1.30;0.60;;;12.10;97.70;;;;;;5031586;28;20108;-46
2023/11/26 05:28:28;;;;;;;1.52;0.60;;;12.10;97.70;;;;;;5032090;28;20021;-45
2023/11/26 05:30:53;;;;;;;1.33;0.70;;;12.00;97.70;;;;;;5031738;28;20421;-46
2023/11/26 05:33:19;;;;;;;0.90;0.65;;;12.00;97.70;;;;;;5032511;28;20096;-47
2023/11/26 05:35:44;;;;;;;1.20;0.50;;;12.00;97.70;;;;;;5032061;28;20083;-46
2023/11/26 05:38:10;;;;;;;1.83;0.70;;;12.00;97.80;;;;;;5031160;28;20029;-47
2023/11/26 05:40:36;;;;;;;1.67;0.80;;;12.00;97.80;;;;;;5033031;28;20030;-47
2023/11/26 05:43:02;;;;;;;1.15;0.60;;;12.00;97.80;;;;;;5032726;28;20566;-47
2023/11/26 05:45:28;;;;;;;1.80;0.93;;;12.00;97.80;;;;;;5032088;28;20501;-47
2023/11/26 05:47:55;;;;;;;1.77;0.75;;;12.00;97.80;;;;;;5031833;28;20021;-45
2023/11/26 05:50:21;;;;;;;1.92;0.90;;;12.00;97.80;;;;;;5032387;28;20099;-46
2023/11/26 05:52:46;;;;;;;1.33;0.80;;;12.00;97.80;;;;;;5031244;28;20080;-46
2023/11/26 05:55:12;;;;;;;3.58;0.80;;;12.00;97.80;;;;;;5031131;28;20030;-47
2023/11/26 05:57:38;;;;;;;1.80;0.70;;;11.90;97.80;;;;;;5031670;28;20026;-47
2023/11/26 06:00:04;;;;;;;1.00;0.60;;;12.00;97.90;;;;;;5031261;28;20025;-47
2023/11/26 06:02:30;;;;;;;1.30;0.60;;;12.00;97.90;;;;;;5031365;28;20497;-47
2023/11/26 06:04:56;;;;;;;1.60;0.77;;;11.90;97.90;;;;;;5031592;28;20029;-47
2023/11/26 06:07:23;;;;;;;1.17;0.52;;;11.90;97.90;;;;;;5032560;28;20087;-47
2023/11/26 06:09:48;;;;;;;1.85;0.70;;;11.90;97.90;;;;;;5032084;28;20423;-46
2023/11/26 06:12:14;;;;;;;1.63;0.90;;;11.90;97.90;;;;;;5031276;28;20029;-46
2023/11/26 06:14:40;;;;;;;1.42;0.80;;;11.90;97.90;;;;;;5031200;28;20033;-47
2023/11/26 06:17:05;;;;;;;1.23;0.70;;;11.90;97.90;;;;;;5032429;28;20104;-45
2023/11/26 06:19:31;;;;;;;1.27;0.70;;;11.90;97.90;;;;;;5034907;28;20056;-47
2023/11/26 06:21:56;;;;;;;1.63;0.60;;;11.90;97.90;;;;;;5035096;28;20029;-46
2023/11/26 06:24:23;;;;;;;1.70;0.60;;;11.90;98.00;;;;;;5035049;28;20482;-46
2023/11/26 06:26:51;;;;;;;1.65;0.80;;;11.80;97.90;;;;;;5034720;28;20033;-47
2023/11/26 06:29:17;;;;;;;1.15;0.60;;;11.90;98.00;;;;;;5033324;28;20479;-46
2023/11/26 06:31:44;;;;;;;1.38;0.70;;;11.80;97.90;;;;;;5034591;28;20021;-46
2023/11/26 06:34:10;;;;;;;1.10;0.70;;;11.80;98.00;;;;;;5035356;28;20025;-46
2023/11/26 06:36:36;;;;;;;1.00;0.52;;;11.80;98.00;;;;;;5035492;28;20151;-45
2023/11/26 06:39:06;;;;;;;2.65;1.08;;;11.80;98.00;;;;;;5034938;28;20601;-47
2023/11/26 06:41:31;;;;;;;1.98;0.60;;;11.80;98.00;;;;;;5035879;28;20017;-47
2023/11/26 06:43:59;;;;;;;1.73;0.77;;;11.80;98.00;;;;;;5035431;28;20100;-46
2023/11/26 06:46:27;;;;;;;1.60;0.70;;;11.80;98.10;;;;;;5035920;28;20025;-46
2023/11/26 06:48:53;;;;;;;1.10;0.57;;;11.80;98.10;;;;;;5034823;28;20451;-48
2023/11/26 06:51:21;;;;;;;1.23;0.77;;;11.80;98.10;;;;;;5036429;28;20036;-47
2023/11/26 06:53:47;;;;;;;1.80;0.80;;;11.80;98.10;;;;;;5035272;28;20025;-46
2023/11/26 06:56:14;;;;;;;1.42;0.70;;;11.90;98.10;;;;;;5034196;28;20028;-46
2023/11/26 06:58:41;;;;;;;2.63;0.75;;;11.90;98.10;;;;;;5034837;28;20056;-45
2023/11/26 07:01:07;;;;;;;0.93;0.60;;;11.90;98.10;;;;;;5035381;28;20529;-46
2023/11/26 07:03:35;;;;;;;1.40;0.70;;;12.00;98.00;;;;;;5034892;28;20060;-47
2023/11/26 07:06:02;;;;;;;1.50;0.60;;;12.00;98.00;;;;;;5034621;28;20533;-46
2023/11/26 07:08:28;;;;;;;1.58;0.60;;;12.00;97.90;;;;;;5033889;28;20033;-46
2023/11/26 07:10:54;;;;;;;2.97;0.68;;;12.10;97.90;;;;;;5033964;28;20052;-46
2023/11/26 07:13:20;;;;;;;1.85;0.80;;;12.10;98.20;;;;;;5034043;28;20021;-47
2023/11/26 07:15:47;;;;;;;1.35;0.65;;;12.10;97.80;;;;;;5033844;28;20399;-46
2023/11/26 07:18:13;;;;;;;0.85;0.52;;;12.20;97.80;;;;;;5035086;28;20041;-46
2023/11/26 07:20:40;;;;;;;1.48;0.47;;;12.20;97.80;;;;;;5034191;28;20033;-47
2023/11/26 07:23:06;;;;;;;1.42;0.70;;;12.20;97.60;;;;;;5032460;28;20025;-46
2023/11/26 07:25:32;;;;;;;1.30;0.70;;;12.30;97.60;;;;;;5034690;28;20018;-46
2023/11/26 07:27:58;;;;;;;1.20;0.50;;;12.30;97.60;;;;;;5034856;28;20028;-47
2023/11/26 07:30:24;;;;;;;1.17;0.73;;;12.30;97.50;;;;;;5033432;28;20026;-46
2023/11/26 07:32:50;;;;;;;1.30;0.70;;;12.30;97.50;;;;;;5034323;28;20028;-47
2023/11/26 07:35:16;;;;;;;1.25;0.52;;;12.40;97.50;;;;;;5033453;28;20061;-47
2023/11/26 07:37:42;;;;;;;1.67;0.90;;;12.40;97.40;;;;;;5033790;28;20036;-47
2023/11/26 07:40:14;;;;;;;1.23;0.60;;;12.40;97.40;;;;;;5033581;28;20033;-46
2023/11/26 07:42:41;;;;;;;2.65;0.75;;;12.50;97.40;;;;;;5034160;28;20036;-46
2023/11/26 07:45:11;;;;;;;1.77;0.90;;;12.50;97.40;;;;;;5033704;28;20426;-47
2023/11/26 07:47:37;;;;;;;2.03;0.75;;;12.50;97.30;;;;;;5034223;28;20014;-47
2023/11/26 07:50:07;;;;;;;2.03;0.95;;;12.50;97.30;;;;;;5033203;28;20092;-46
2023/11/26 07:52:34;;;;;;;1.77;0.80;;;12.60;97.30;;;;;;5033226;28;20483;-47
2023/11/26 07:55:03;;;;;;;1.48;0.95;;;12.60;97.20;;;;;;5033893;28;20029;-47
2023/11/26 07:57:30;;;;;;;1.20;0.98;;;12.60;97.20;;;;;;5033256;28;20547;-47
2023/11/26 07:59:57;;;;;;;1.75;0.82;;;12.60;97.10;;;;;;5033030;28;20484;-47
2023/11/26 08:02:23;;;;;;;1.83;0.80;;;12.70;97.10;;;;;;5033026;28;20036;-46
2023/11/26 08:04:53;;;;;;;1.30;0.80;;;12.70;97.00;;;;;;5033312;28;20079;-46
2023/11/26 08:07:23;;;;;;;1.27;0.82;;;12.80;97.00;;;;;;5032814;28;20021;-47
2023/11/26 08:09:51;;;;;;;1.20;0.80;;;12.80;97.00;;;;;;5032629;28;20044;-46
2023/11/26 08:12:20;;;;;;;1.58;0.85;;;12.80;97.00;;;;;;5032975;28;20030;-46
2023/11/26 08:14:47;;;;;;;1.40;0.90;;;12.90;96.90;;;;;;5034010;28;20025;-45
2023/11/26 08:17:15;;;;;;;1.83;1.10;;;12.90;96.90;;;;;;5033772;28;20110;-46
2023/11/26 08:19:41;;;;;;;1.15;0.88;;;12.90;96.80;;;;;;5033421;28;20029;-47
2023/11/26 08:22:07;;;;;;;1.63;0.90;;;13.00;96.70;;;;;;5033560;28;20410;-45
2023/11/26 08:24:36;;;;;;;1.65;1.15;;;13.00;96.70;;;;;;5032483;28;20082;-47
2023/11/26 08:27:02;;;;;;;1.60;1.08;;;13.10;96.70;;;;;;5033118;28;20028;-47
2023/11/26 08:29:27;;;;;;;1.40;1.00;;;13.10;96.60;;;;;;5033676;28;20021;-46
2023/11/26 08:31:54;;;;;;;1.40;0.93;;;13.20;96.60;;;;;;5032697;28;20495;-46
2023/11/26 08:34:22;;;;;;;1.35;0.98;;;13.20;96.50;;;;;;5032660;28;20376;-46
2023/11/26 08:36:50;;;;;;;2.42;1.40;;;13.20;96.50;;;;;;5032441;28;20475;-47
2023/11/26 08:39:26;;;;;;;1.92;1.25;;;13.20;96.40;;;;;;5032741;28;20040;-46
2023/11/26 08:41:52;;;;;;;2.20;1.40;;;13.30;96.40;;;;;;5032905;28;20032;-46
2023/11/26 08:44:18;;;;;;;2.38;1.40;;;13.30;96.30;;;;;;5032434;28;20021;-47
2023/11/26 08:46:47;;;;;;;1.30;1.00;;;13.40;96.30;;;;;;5032760;28;20024;-47
2023/11/26 08:49:19;;;;;;;1.50;1.00;;;13.40;96.20;;;;;;5033070;28;20507;-46
2023/11/26 08:51:46;;;;;;;1.95;1.10;;;13.40;96.30;;;;;;5033014;28;20017;-47
2023/11/26 08:54:12;;;;;;;1.40;1.08;;;13.50;96.50;;;;;;5032679;28;20037;-47
2023/11/26 08:56:38;;;;;;;2.15;1.30;;;13.50;96.10;;;;;;5033040;28;20025;-47
2023/11/26 08:59:04;;;;;;;1.55;1.13;;;13.60;96.10;;;;;;5032890;28;20505;-46
2023/11/26 09:01:30;;;;;;;2.75;1.10;;;13.60;96.00;;;;;;5033125;28;20018;-48
2023/11/26 09:03:56;;;;;;;3.25;1.90;;;13.70;96.00;;;;;;5032077;28;20029;-45
2023/11/26 09:06:22;;;;;;;5.07;1.92;;;13.80;95.70;;;;;;5031661;28;20036;-45
2023/11/26 09:08:50;;;;;;;4.75;2.33;;;13.80;95.30;;;;;;5031617;28;20124;-45
2023/11/26 09:11:18;;;;;;;3.95;2.10;;;13.80;95.30;;;;;;5032990;28;20025;-47
2023/11/26 09:13:45;;;;;;;3.58;2.00;;;13.90;95.20;;;;;;5031684;28;20427;-45
2023/11/26 09:16:11;;;;;;;3.72;2.20;;;13.90;95.20;;;;;;5032943;28;20021;-45
2023/11/26 09:18:37;;;;;;;4.13;1.92;;;14.00;95.20;;;;;;5032189;28;20026;-45
2023/11/26 09:21:06;;;;;;;5.43;2.20;;;14.20;95.20;;;;;;5032455;28;20104;-47
2023/11/26 09:23:34;;;;;;;3.65;1.90;;;14.20;95.20;;;;;;5032455;28;20479;-45
2023/11/26 09:26:00;;;;;;;6.38;1.83;;;14.30;95.20;;;;;;5032243;28;20108;-47
2023/11/26 09:28:25;;;;;;;4.40;1.77;;;14.40;95.20;;;;;;5032257;28;20614;-45
2023/11/26 09:30:51;;;;;;;3.90;1.83;;;14.50;95.20;;;;;;5031388;28;20017;-46
2023/11/26 09:33:17;;;;;;;2.83;1.70;;;14.60;95.10;;;;;;5033115;28;20017;-45
2023/11/26 09:35:42;;;;;;;3.22;1.55;;;14.80;95.10;;;;;;5031523;28;20387;-46
2023/11/26 09:38:09;;;;;;;3.33;1.70;;;14.80;95.00;;;;;;5031057;28;20040;-46
2023/11/26 09:40:42;;;;;;;3.63;1.70;;;15.00;94.90;;;;;;5031368;28;20382;-46
2023/11/26 09:43:09;;;;;;;4.68;1.90;;;15.00;94.80;;;;;;5031443;28;20107;-46
2023/11/26 09:45:37;;;;;;;3.45;1.60;;;15.10;94.60;;;;;;5031075;28;20250;-47
2023/11/26 09:48:04;;;;;;;2.78;1.60;;;15.20;94.60;;;;;;5031537;28;20475;-45
2023/11/26 09:50:30;;;;;;;2.03;1.40;;;15.30;94.50;;;;;;5034066;28;20028;-46
2023/11/26 09:52:57;;;;;;;2.63;1.55;;;15.40;94.50;;;;;;5034998;28;20101;-47
2023/11/26 09:55:23;;;;;;;3.33;1.70;;;15.50;94.40;;;;;;5037737;28;20040;-46
2023/11/26 09:57:49;;;;;;;2.47;1.52;;;15.50;94.30;;;;;;5038299;28;20021;-45
2023/11/26 10:00:16;;;;;;;2.67;1.48;;;15.60;94.20;;;;;;5037148;28;20392;-43
2023/11/26 10:02:41;;;;;;;3.92;1.73;;;15.70;94.50;;;;;;5037978;28;20079;-46
2023/11/26 10:05:22;;;;;;;2.60;1.40;;;15.80;94.10;;;;;;5037683;28;20030;-45
2023/11/26 10:07:52;;;;;;;3.42;1.88;;;15.80;94.00;;;;;;5037684;28;20494;-43
2023/11/26 10:10:18;;;;;;;2.17;1.13;;;15.90;93.90;;;;;;5036214;28;20036;-44
2023/11/26 10:13:00;;;;;;;2.53;1.50;;;16.00;93.80;;;;;;5037569;28;20035;-45
2023/11/26 10:15:30;;;;;;;2.80;1.30;;;16.10;93.60;;;;;;5037596;28;20499;-45
2023/11/26 10:18:04;;;;;;;2.53;1.40;;;16.10;93.50;;;;;;5037414;28;20065;-46
2023/11/26 10:20:31;;;;;;;3.83;1.45;;;16.10;93.40;;;;;;5037528;28;20036;-46
2023/11/26 10:22:57;;;;;;;4.35;1.50;;;16.20;93.40;;;;;;5037629;28;20106;-46
2023/11/26 10:25:26;;;;;;;3.30;1.40;;;16.20;93.30;;;;;;5038528;28;20446;-46
2023/11/26 10:27:52;;;;;;;2.72;1.45;;;16.30;93.30;;;;;;5038900;28;20017;-47
2023/11/26 10:30:29;;;;;;;2.50;1.52;;;16.30;93.30;;;;;;5038696;28;20029;-45
2023/11/26 10:33:03;;;;;;;3.85;1.30;;;16.40;93.30;;;;;;5037587;28;20480;-45
2023/11/26 10:35:50;;;;;;;2.60;1.40;;;16.40;93.30;;;;;;5037303;28;20030;-46
2023/11/26 10:38:27;;;;;;;2.95;1.20;;;16.50;93.20;;;;;;5037938;28;20029;-46
2023/11/26 10:40:56;;;;;;;2.42;1.30;;;16.50;93.20;;;;;;5037461;28;20079;-46
2023/11/26 10:43:22;;;;;;;2.38;1.23;;;16.60;93.10;;;;;;5037416;28;20080;-46
2023/11/26 10:45:49;;;;;;;1.73;1.20;;;16.70;93.00;;;;;;5037637;28;20029;-46
2023/11/26 10:48:15;;;;;;;2.65;1.27;;;16.70;93.00;;;;;;5037228;28;20033;-46
2023/11/26 10:50:47;;;;;;;2.63;1.38;;;16.80;92.90;;;;;;5037696;28;20017;-44
2023/11/26 10:53:22;;;;;;;2.85;1.30;;;16.90;92.80;;;;;;5037606;28;20030;-46
2023/11/26 10:55:51;;;;;;;3.17;1.40;;;17.00;92.80;;;;;;5037221;28;20483;-46
2023/11/26 10:58:19;;;;;;;1.90;1.20;;;17.00;92.70;;;;;;5038189;28;20030;-46
2023/11/26 11:00:50;;;;;;;2.25;1.10;;;17.10;92.70;;;;;;5037733;28;20053;-44
2023/11/26 11:03:17;;;;;;;1.65;1.02;;;17.20;92.60;;;;;;5037239;28;20112;-46
2023/11/26 11:05:46;;;;;;;2.25;1.33;;;17.20;92.50;;;;;;5033971;28;20026;-46
2023/11/26 11:08:12;;;;;;;2.47;1.42;;;17.20;92.40;;;;;;5034061;28;20017;-46
2023/11/26 11:10:57;;;;;;;2.30;1.30;;;17.20;92.30;;;;;;5034062;28;20391;-46
2023/11/26 11:13:24;;;;;;;1.83;1.10;;;17.30;92.30;;;;;;5034046;28;20021;-46
2023/11/26 11:15:51;;;;;;;2.92;1.23;;;17.30;92.20;;;;;;5033809;28;20380;-46
2023/11/26 11:18:30;;;;;;;2.13;1.10;;;17.40;92.20;;;;;;5033868;28;20109;-46
2023/11/26 11:21:10;;;;;;;2.58;1.13;;;17.40;92.10;;;;;;5033832;28;20037;-46
2023/11/26 11:23:52;;;;;;;2.53;1.23;;;17.50;92.10;;;;;;5033615;28;20387;-46
2023/11/26 11:26:20;;;;;;;2.00;1.05;;;17.50;92.10;;;;;;5033429;28;20028;-46
2023/11/26 11:28:51;;;;;;;2.35;1.13;;;17.60;92.10;;;;;;5033610;28;20539;-46
2023/11/26 11:31:21;;;;;;;2.58;1.27;;;17.60;92.10;;;;;;5033659;28;20033;-46
2023/11/26 11:33:59;;;;;;;2.90;1.20;;;17.60;92.10;;;;;;5033453;28;20395;-44
2023/11/26 11:36:49;;;;;;;2.10;1.13;;;17.70;92.00;;;;;;5033478;28;20034;-46
2023/11/26 11:39:17;;;;;;;2.55;1.10;;;17.70;91.80;;;;;;5033421;28;20112;-46
2023/11/26 11:41:58;;;;;;;1.40;0.95;;;17.80;91.70;;;;;;5033505;28;20032;-46
2023/11/26 11:44:26;;;;;;;2.08;0.93;;;17.90;91.60;;;;;;5033728;28;20029;-46
2023/11/26 11:46:52;;;;;;;2.05;1.10;;;17.90;91.50;;;;;;5033414;28;20034;-46
2023/11/26 11:49:17;;;;;;;2.33;0.85;;;17.90;91.50;;;;;;5033173;28;20026;-46
2023/11/26 11:51:43;;;;;;;1.38;0.90;;;17.90;91.40;;;;;;5034219;28;20021;-46
2023/11/26 11:54:09;;;;;;;1.67;0.90;;;17.90;91.40;;;;;;5033220;28;20057;-46
2023/11/26 11:56:39;;;;;;;2.00;1.10;;;17.90;91.30;;;;;;5033117;28;20118;-46
2023/11/26 11:59:05;;;;;;;1.35;0.90;;;17.90;91.20;;;;;;5032957;28;20034;-46
2023/11/26 12:01:31;;;;;;;1.80;0.95;;;17.90;91.20;;;;;;5033240;28;20562;-46
2023/11/26 12:04:00;;;;;;;2.00;1.08;;;17.90;91.10;;;;;;5033028;28;20039;-46
2023/11/26 12:06:33;;;;;;;1.85;0.98;;;17.90;91.00;;;;;;5032887;28;20025;-46
2023/11/26 12:09:01;;;;;;;1.20;0.68;;;17.90;91.00;;;;;;5033225;28;20025;-46
2023/11/26 12:11:27;;;;;;;3.58;0.80;;;17.90;90.90;;;;;;5032839;28;20088;-46
2023/11/26 12:13:53;;;;;;;1.58;0.88;;;17.90;90.90;;;;;;5032871;28;20034;-46
2023/11/26 12:16:19;;;;;;;1.77;0.90;;;17.90;90.90;;;;;;5032146;28;20487;-45
2023/11/26 12:18:45;;;;;;;1.58;0.80;;;17.80;90.80;;;;;;5033178;28;20108;-46
2023/11/26 12:21:11;;;;;;;1.73;0.82;;;17.90;90.80;;;;;;5033541;28;20108;-45
2023/11/26 12:23:41;;;;;;;2.08;1.13;;;17.80;90.80;;;;;;5032685;28;20056;-46
2023/11/26 12:26:07;;;;;;;1.65;0.80;;;17.80;90.80;;;;;;5032403;28;20025;-46
2023/11/26 12:28:43;;;;;;;1.52;0.90;;;17.80;90.80;;;;;;5032426;28;20068;-46
2023/11/26 12:31:10;;;;;;;1.55;0.98;;;17.80;90.80;;;;;;5032633;28;20485;-44
2023/11/26 12:33:42;;;;;;;1.77;0.88;;;17.80;90.80;;;;;;5032488;28;20459;-46
2023/11/26 12:36:14;;;;;;;1.58;0.80;;;17.80;90.80;;;;;;5032357;28;20033;-46
2023/11/26 12:38:42;;;;;;;1.42;0.73;;;17.80;90.80;;;;;;5032178;28;20110;-46
2023/11/26 12:41:09;;;;;;;1.88;0.93;;;17.80;90.80;;;;;;5032383;28;20424;-46
2023/11/26 12:43:39;;;;;;;1.40;0.80;;;17.70;90.80;;;;;;5032386;28;20033;-46
2023/11/26 12:46:13;;;;;;;1.45;0.75;;;17.70;90.90;;;;;;5032205;28;20040;-44
2023/11/26 12:48:40;;;;;;;1.27;0.82;;;17.70;90.90;;;;;;5031977;28;20013;-45
2023/11/26 12:51:07;;;;;;;1.02;0.60;;;17.80;90.90;;;;;;5032011;28;20037;-46